Language: 

Nearby METAR Reports

METAR Reports

Hourly observations from airfields within 50 miles of this weather station

 

EGHH - Bournemouth Airp, United Kingdom
Distance from station: S 10mi, 17km
Updated: Mon, 23-Oct-2017 7:50pm BST
Overcast
Overcast
 Wind from WSW
Wind: WSW 8 mph , 13 km/h
Temperature: 15°C
Dew Point: 14°C
Humidity: 94%
Barometer: 1018 hPa
Clouds: Overcast
Visibility: 6 miles , 10 km
Cloud details: Overcast 152 m
2017/10/23 18:50 EGHH 231850Z 24007KT 9999 OVC005 15/14 Q1018
EGDM - Boscombe Down, United Kingdom
Distance from station: N 16mi, 26km
Updated: Mon, 23-Oct-2017 6:50pm BST
Mist, Mostly cloudy
Mist, Mostly cloudy
 Wind from SSW
Wind: SSW 10 mph , 17 km/h
Temperature: 15°C
Dew Point: 15°C
Humidity: 100%
Barometer: 1017 hPa
Summary: Mist
Clouds: Mostly Cloudy
Visibility: 3 miles , 5 km
Cloud details: Mostly Cloudy 91 m
Mostly Cloudy 305 m
2017/10/23 17:50 EGDM 231750Z AUTO 21009KT 5000 BR BKN003/// BKN010/// 15/15 Q1017
 
EGVP - Middle Wallop, United Kingdom
Distance from station: NE 17mi, 27km
Updated: Mon, 23-Oct-2017 7:09pm BST
Light drizzle, Mostly cloudy
Light drizzle, Mostly cloudy
 Wind from SW
Wind: SW 8 mph , 13 km/h
Temperature: 15°C
Dew Point: 15°C
Humidity: 100%
Barometer: 1017 hPa
Summary: Light Drizzle
Clouds: Mostly Cloudy
Visibility: 6 miles , 9 km
Cloud details: Mostly Cloudy 122 m
Mostly Cloudy 610 m
2017/10/23 18:09 EGVP 231809Z 22007KT 9000 -DZ BKN004 BKN020 15/15 Q1017 YLO2 TEMPO 6000 DZ YLO2
EGHI - Southampton Wx C, United Kingdom
Distance from station: E 19mi, 31km
Updated: Mon, 23-Oct-2017 7:50pm BST
Mostly Cloudy
Mostly Cloudy
 Wind from SSW
Wind: SSW 6 mph , 9 km/h
Temperature: 14°C
Dew Point: 13°C
Humidity: 94%
Barometer: 1018 hPa
Clouds: Mostly Cloudy
Visibility: 5 miles , 8 km
Cloud details: Mostly Cloudy 152 m
2017/10/23 18:50 EGHI 231850Z 21005KT 8000 BKN005 14/13 Q1018
 
EGDY - Yeovilton (navy), United Kingdom
Distance from station: W 36mi, 58km
Updated: Mon, 23-Oct-2017 6:50pm BST
Mostly Cloudy
Mostly Cloudy
 Wind from SSW
Wind: SSW 5 mph , 7 km/h
Temperature: 15°C
Dew Point: 14°C
Humidity: 94%
Barometer: 1017 hPa
Clouds: Mostly Cloudy
Visibility: 6 miles , 10 km
Cloud details: Mostly Cloudy 732 m
2017/10/23 17:50 EGDY 231750Z AUTO 20004KT 9999 BKN024/// 15/14 Q1017
EGVO - Odiham Raf, United Kingdom
Distance from station: ENE 42mi, 68km
Updated: Mon, 23-Oct-2017 6:50pm BST
Light drizzle, Mostly cloudy
Light drizzle, Mostly cloudy
 Wind from SW
Wind: SW 7 mph , 11 km/h
Temperature: 15°C
Dew Point: 14°C
Humidity: 94%
Barometer: 1017 hPa
Summary: Light Drizzle
Clouds: Mostly Cloudy
Visibility: 6 miles , 10 km
Cloud details: Mostly Cloudy 152 m
Mostly Cloudy 457 m
2017/10/23 17:50 EGVO 231750Z 22006KT 9999 -DZ BKN005 BKN015 15/14 Q1017 YLO1 TEMPO BKN004 YLO2

Metar display script from Saratoga-Weather.org

top of page button